sensor_id;sensor_type;location;lat;lon;timestamp;P1;durP1;ratioP1;P2;durP2;ratioP2
69005;SDS011;56061;51.748;19.620;2022-12-29T00:00:14;8.90;;;3.80;;
69005;SDS011;56061;51.748;19.620;2022-12-29T00:02:41;10.40;;;4.50;;
69005;SDS011;56061;51.748;19.620;2022-12-29T00:05:08;9.60;;;3.90;;
69005;SDS011;56061;51.748;19.620;2022-12-29T00:07:35;10.00;;;3.90;;
69005;SDS011;56061;51.748;19.620;2022-12-29T00:10:02;8.80;;;3.80;;
69005;SDS011;56061;51.748;19.620;2022-12-29T00:12:29;8.40;;;4.00;;
69005;SDS011;56061;51.748;19.620;2022-12-29T00:15:15;10.20;;;4.10;;
69005;SDS011;56061;51.748;19.620;2022-12-29T00:18:00;10.00;;;3.90;;
69005;SDS011;56061;51.748;19.620;2022-12-29T00:20:27;7.20;;;3.60;;
69005;SDS011;56061;51.748;19.620;2022-12-29T00:23:12;8.50;;;3.80;;
69005;SDS011;56061;51.748;19.620;2022-12-29T00:25:58;9.80;;;3.50;;
69005;SDS011;56061;51.748;19.620;2022-12-29T00:28:43;8.50;;;3.50;;
69005;SDS011;56061;51.748;19.620;2022-12-29T00:31:28;9.60;;;3.90;;
69005;SDS011;56061;51.748;19.620;2022-12-29T00:34:13;8.50;;;3.50;;
69005;SDS011;56061;51.748;19.620;2022-12-29T00:36:58;10.10;;;3.90;;
69005;SDS011;56061;51.748;19.620;2022-12-29T00:39:24;9.10;;;4.40;;
69005;SDS011;56061;51.748;19.620;2022-12-29T00:42:09;9.70;;;4.10;;
69005;SDS011;56061;51.748;19.620;2022-12-29T00:45:05;8.10;;;3.50;;
69005;SDS011;56061;51.748;19.620;2022-12-29T00:47:32;9.90;;;3.20;;
69005;SDS011;56061;51.748;19.620;2022-12-29T00:49:59;9.00;;;3.50;;
69005;SDS011;56061;51.748;19.620;2022-12-29T00:52:25;9.90;;;3.80;;
69005;SDS011;56061;51.748;19.620;2022-12-29T00:54:52;8.40;;;3.00;;
69005;SDS011;56061;51.748;19.620;2022-12-29T00:57:18;8.00;;;3.40;;
69005;SDS011;56061;51.748;19.620;2022-12-29T00:59:45;8.20;;;2.90;;
69005;SDS011;56061;51.748;19.620;2022-12-29T01:02:11;9.80;;;3.90;;
69005;SDS011;56061;51.748;19.620;2022-12-29T01:04:38;9.00;;;3.70;;
69005;SDS011;56061;51.748;19.620;2022-12-29T01:07:05;8.80;;;3.50;;
69005;SDS011;56061;51.748;19.620;2022-12-29T01:09:32;8.10;;;3.50;;
69005;SDS011;56061;51.748;19.620;2022-12-29T01:12:17;8.80;;;3.60;;
69005;SDS011;56061;51.748;19.620;2022-12-29T01:15:05;11.80;;;3.60;;
69005;SDS011;56061;51.748;19.620;2022-12-29T01:17:33;8.40;;;3.80;;
69005;SDS011;56061;51.748;19.620;2022-12-29T01:20:00;9.00;;;3.00;;
69005;SDS011;56061;51.748;19.620;2022-12-29T01:22:27;9.10;;;3.30;;
69005;SDS011;56061;51.748;19.620;2022-12-29T01:24:53;7.80;;;3.10;;
69005;SDS011;56061;51.748;19.620;2022-12-29T01:27:20;9.70;;;3.30;;
69005;SDS011;56061;51.748;19.620;2022-12-29T01:29:46;9.40;;;3.40;;
69005;SDS011;56061;51.748;19.620;2022-12-29T01:32:13;7.20;;;3.00;;
69005;SDS011;56061;51.748;19.620;2022-12-29T01:34:39;8.70;;;3.20;;
69005;SDS011;56061;51.748;19.620;2022-12-29T01:37:06;6.70;;;3.20;;
69005;SDS011;56061;51.748;19.620;2022-12-29T01:39:32;8.00;;;3.00;;
69005;SDS011;56061;51.748;19.620;2022-12-29T01:41:59;8.30;;;3.30;;
69005;SDS011;56061;51.748;19.620;2022-12-29T01:44:56;9.40;;;3.30;;
69005;SDS011;56061;51.748;19.620;2022-12-29T01:47:35;7.00;;;3.30;;
69005;SDS011;56061;51.748;19.620;2022-12-29T01:50:12;8.60;;;3.10;;
69005;SDS011;56061;51.748;19.620;2022-12-29T01:52:59;7.10;;;3.00;;
69005;SDS011;56061;51.748;19.620;2022-12-29T01:55:30;8.60;;;3.20;;
69005;SDS011;56061;51.748;19.620;2022-12-29T01:58:03;8.80;;;3.90;;
69005;SDS011;56061;51.748;19.620;2022-12-29T02:00:32;9.30;;;3.10;;
69005;SDS011;56061;51.748;19.620;2022-12-29T02:02:59;8.60;;;3.20;;
69005;SDS011;56061;51.748;19.620;2022-12-29T02:05:31;8.00;;;3.20;;
69005;SDS011;56061;51.748;19.620;2022-12-29T02:08:02;8.50;;;3.30;;
69005;SDS011;56061;51.748;19.620;2022-12-29T02:13:52;9.70;;;3.60;;
69005;SDS011;56061;51.748;19.620;2022-12-29T02:16:38;7.90;;;3.10;;
69005;SDS011;56061;51.748;19.620;2022-12-29T02:22:58;9.00;;;3.70;;
69005;SDS011;56061;51.748;19.620;2022-12-29T02:31:58;7.40;;;2.90;;
69005;SDS011;56061;51.748;19.620;2022-12-29T02:38:25;5.90;;;2.50;;
69005;SDS011;56061;51.748;19.620;2022-12-29T02:41:33;8.10;;;3.00;;
69005;SDS011;56061;51.748;19.620;2022-12-29T02:47:09;7.40;;;2.90;;
69005;SDS011;56061;51.748;19.620;2022-12-29T02:50:01;8.00;;;3.00;;
69005;SDS011;56061;51.748;19.620;2022-12-29T02:52:44;7.40;;;3.00;;
69005;SDS011;56061;51.748;19.620;2022-12-29T02:55:17;7.70;;;3.00;;
69005;SDS011;56061;51.748;19.620;2022-12-29T02:57:44;7.20;;;3.00;;
69005;SDS011;56061;51.748;19.620;2022-12-29T03:00:14;7.00;;;2.80;;
69005;SDS011;56061;51.748;19.620;2022-12-29T03:03:15;4.80;;;2.20;;
69005;SDS011;56061;51.748;19.620;2022-12-29T03:06:11;6.60;;;2.50;;
69005;SDS011;56061;51.748;19.620;2022-12-29T03:11:55;7.20;;;2.80;;
69005;SDS011;56061;51.748;19.620;2022-12-29T03:14:55;6.60;;;2.80;;
69005;SDS011;56061;51.748;19.620;2022-12-29T03:18:02;7.30;;;2.50;;
69005;SDS011;56061;51.748;19.620;2022-12-29T03:20:43;6.10;;;2.80;;
69005;SDS011;56061;51.748;19.620;2022-12-29T03:23:13;7.40;;;2.90;;
69005;SDS011;56061;51.748;19.620;2022-12-29T03:25:44;7.30;;;2.80;;
69005;SDS011;56061;51.748;19.620;2022-12-29T03:28:31;9.10;;;3.20;;
69005;SDS011;56061;51.748;19.620;2022-12-29T03:31:04;8.00;;;2.70;;
69005;SDS011;56061;51.748;19.620;2022-12-29T03:33:35;6.80;;;2.90;;
69005;SDS011;56061;51.748;19.620;2022-12-29T03:36:07;7.90;;;3.00;;
69005;SDS011;56061;51.748;19.620;2022-12-29T03:38:44;6.50;;;2.70;;
69005;SDS011;56061;51.748;19.620;2022-12-29T03:41:20;7.20;;;3.00;;
69005;SDS011;56061;51.748;19.620;2022-12-29T03:43:51;6.30;;;2.70;;
69005;SDS011;56061;51.748;19.620;2022-12-29T03:46:18;8.00;;;2.70;;
69005;SDS011;56061;51.748;19.620;2022-12-29T03:48:44;5.60;;;2.70;;
69005;SDS011;56061;51.748;19.620;2022-12-29T03:51:11;7.40;;;3.10;;
69005;SDS011;56061;51.748;19.620;2022-12-29T03:53:38;7.50;;;2.60;;
69005;SDS011;56061;51.748;19.620;2022-12-29T03:56:05;6.70;;;2.90;;
69005;SDS011;56061;51.748;19.620;2022-12-29T03:58:32;9.90;;;3.20;;
69005;SDS011;56061;51.748;19.620;2022-12-29T04:00:59;8.70;;;3.30;;
69005;SDS011;56061;51.748;19.620;2022-12-29T04:03:26;9.00;;;3.30;;
69005;SDS011;56061;51.748;19.620;2022-12-29T04:05:53;5.90;;;2.80;;
69005;SDS011;56061;51.748;19.620;2022-12-29T04:08:19;7.40;;;2.80;;
69005;SDS011;56061;51.748;19.620;2022-12-29T04:10:48;8.20;;;3.30;;
69005;SDS011;56061;51.748;19.620;2022-12-29T04:13:15;7.10;;;3.10;;
69005;SDS011;56061;51.748;19.620;2022-12-29T04:15:43;7.60;;;3.30;;
69005;SDS011;56061;51.748;19.620;2022-12-29T04:18:12;8.70;;;3.40;;
69005;SDS011;56061;51.748;19.620;2022-12-29T04:20:39;8.00;;;3.50;;
69005;SDS011;56061;51.748;19.620;2022-12-29T04:23:28;7.60;;;2.80;;
69005;SDS011;56061;51.748;19.620;2022-12-29T04:25:59;8.40;;;3.10;;
69005;SDS011;56061;51.748;19.620;2022-12-29T04:28:27;9.50;;;3.40;;
69005;SDS011;56061;51.748;19.620;2022-12-29T04:30:54;7.20;;;2.90;;
69005;SDS011;56061;51.748;19.620;2022-12-29T04:33:21;9.80;;;2.70;;
69005;SDS011;56061;51.748;19.620;2022-12-29T04:35:48;8.00;;;3.20;;
69005;SDS011;56061;51.748;19.620;2022-12-29T04:38:15;7.30;;;3.10;;
69005;SDS011;56061;51.748;19.620;2022-12-29T04:40:44;7.90;;;2.90;;
69005;SDS011;56061;51.748;19.620;2022-12-29T04:43:11;7.30;;;2.80;;
69005;SDS011;56061;51.748;19.620;2022-12-29T04:45:45;11.30;;;4.00;;
69005;SDS011;56061;51.748;19.620;2022-12-29T04:48:13;7.30;;;3.00;;
69005;SDS011;56061;51.748;19.620;2022-12-29T04:50:41;6.70;;;2.80;;
69005;SDS011;56061;51.748;19.620;2022-12-29T04:53:08;13.40;;;4.40;;
69005;SDS011;56061;51.748;19.620;2022-12-29T04:55:34;12.00;;;3.90;;
69005;SDS011;56061;51.748;19.620;2022-12-29T04:58:01;9.50;;;3.30;;
69005;SDS011;56061;51.748;19.620;2022-12-29T05:00:27;7.70;;;3.50;;
69005;SDS011;56061;51.748;19.620;2022-12-29T05:02:54;7.80;;;3.10;;
69005;SDS011;56061;51.748;19.620;2022-12-29T05:05:21;6.40;;;2.70;;
69005;SDS011;56061;51.748;19.620;2022-12-29T05:07:47;7.80;;;2.30;;
69005;SDS011;56061;51.748;19.620;2022-12-29T05:10:14;7.60;;;3.10;;
69005;SDS011;56061;51.748;19.620;2022-12-29T05:12:41;8.50;;;3.30;;
69005;SDS011;56061;51.748;19.620;2022-12-29T05:15:09;5.20;;;2.30;;
69005;SDS011;56061;51.748;19.620;2022-12-29T05:18:14;7.30;;;3.50;;
69005;SDS011;56061;51.748;19.620;2022-12-29T05:20:41;6.40;;;2.70;;
69005;SDS011;56061;51.748;19.620;2022-12-29T05:23:08;10.20;;;4.40;;
69005;SDS011;56061;51.748;19.620;2022-12-29T05:25:34;9.40;;;3.90;;
69005;SDS011;56061;51.748;19.620;2022-12-29T05:28:01;9.80;;;3.40;;
69005;SDS011;56061;51.748;19.620;2022-12-29T05:30:28;8.60;;;3.60;;
69005;SDS011;56061;51.748;19.620;2022-12-29T05:32:54;7.60;;;3.00;;
69005;SDS011;56061;51.748;19.620;2022-12-29T05:35:21;8.90;;;2.90;;
69005;SDS011;56061;51.748;19.620;2022-12-29T05:37:48;6.10;;;2.70;;
69005;SDS011;56061;51.748;19.620;2022-12-29T05:40:14;6.70;;;2.30;;
69005;SDS011;56061;51.748;19.620;2022-12-29T05:42:42;6.90;;;2.70;;
69005;SDS011;56061;51.748;19.620;2022-12-29T05:45:09;8.20;;;3.60;;
69005;SDS011;56061;51.748;19.620;2022-12-29T05:47:36;7.20;;;3.10;;
69005;SDS011;56061;51.748;19.620;2022-12-29T05:50:03;10.10;;;3.40;;
69005;SDS011;56061;51.748;19.620;2022-12-29T05:52:42;10.10;;;3.90;;
69005;SDS011;56061;51.748;19.620;2022-12-29T05:55:09;12.20;;;4.70;;
69005;SDS011;56061;51.748;19.620;2022-12-29T05:57:37;9.80;;;3.80;;
69005;SDS011;56061;51.748;19.620;2022-12-29T06:00:05;8.90;;;4.00;;
69005;SDS011;56061;51.748;19.620;2022-12-29T06:02:32;9.60;;;3.60;;
69005;SDS011;56061;51.748;19.620;2022-12-29T06:04:59;8.90;;;3.30;;
69005;SDS011;56061;51.748;19.620;2022-12-29T06:07:27;7.70;;;2.90;;
69005;SDS011;56061;51.748;19.620;2022-12-29T06:09:54;8.30;;;3.20;;
69005;SDS011;56061;51.748;19.620;2022-12-29T06:12:21;6.40;;;2.80;;
69005;SDS011;56061;51.748;19.620;2022-12-29T06:14:48;7.30;;;2.90;;
69005;SDS011;56061;51.748;19.620;2022-12-29T06:17:15;5.90;;;2.80;;
69005;SDS011;56061;51.748;19.620;2022-12-29T06:19:42;9.30;;;3.60;;
69005;SDS011;56061;51.748;19.620;2022-12-29T06:22:10;8.90;;;3.20;;
69005;SDS011;56061;51.748;19.620;2022-12-29T06:24:39;8.30;;;3.40;;
69005;SDS011;56061;51.748;19.620;2022-12-29T06:27:05;8.70;;;3.00;;
69005;SDS011;56061;51.748;19.620;2022-12-29T06:29:32;7.80;;;3.30;;
69005;SDS011;56061;51.748;19.620;2022-12-29T06:31:59;8.40;;;3.80;;
69005;SDS011;56061;51.748;19.620;2022-12-29T06:34:26;8.80;;;3.30;;
69005;SDS011;56061;51.748;19.620;2022-12-29T06:36:52;6.70;;;3.40;;
69005;SDS011;56061;51.748;19.620;2022-12-29T06:39:19;7.90;;;3.00;;
69005;SDS011;56061;51.748;19.620;2022-12-29T06:41:46;8.40;;;3.00;;
69005;SDS011;56061;51.748;19.620;2022-12-29T06:44:13;6.90;;;3.20;;
69005;SDS011;56061;51.748;19.620;2022-12-29T06:46:39;8.60;;;3.40;;
69005;SDS011;56061;51.748;19.620;2022-12-29T06:49:06;8.40;;;3.40;;
69005;SDS011;56061;51.748;19.620;2022-12-29T06:51:33;7.40;;;3.30;;
69005;SDS011;56061;51.748;19.620;2022-12-29T06:53:59;6.90;;;3.40;;
69005;SDS011;56061;51.748;19.620;2022-12-29T06:56:26;8.70;;;3.90;;
69005;SDS011;56061;51.748;19.620;2022-12-29T06:58:53;10.40;;;4.10;;
69005;SDS011;56061;51.748;19.620;2022-12-29T07:01:19;8.60;;;3.70;;
69005;SDS011;56061;51.748;19.620;2022-12-29T07:03:46;10.20;;;3.80;;
69005;SDS011;56061;51.748;19.620;2022-12-29T07:06:13;7.00;;;2.80;;
69005;SDS011;56061;51.748;19.620;2022-12-29T07:08:40;6.70;;;2.90;;
69005;SDS011;56061;51.748;19.620;2022-12-29T07:11:06;7.40;;;3.20;;
69005;SDS011;56061;51.748;19.620;2022-12-29T07:13:33;12.50;;;4.30;;
69005;SDS011;56061;51.748;19.620;2022-12-29T07:16:05;12.20;;;4.20;;
69005;SDS011;56061;51.748;19.620;2022-12-29T07:18:36;12.10;;;4.70;;
69005;SDS011;56061;51.748;19.620;2022-12-29T07:21:02;10.80;;;4.00;;
69005;SDS011;56061;51.748;19.620;2022-12-29T07:23:30;12.60;;;4.70;;
69005;SDS011;56061;51.748;19.620;2022-12-29T07:26:05;8.50;;;3.80;;
69005;SDS011;56061;51.748;19.620;2022-12-29T07:28:34;11.40;;;4.90;;
69005;SDS011;56061;51.748;19.620;2022-12-29T07:31:01;9.20;;;4.00;;
69005;SDS011;56061;51.748;19.620;2022-12-29T07:33:28;11.40;;;4.50;;
69005;SDS011;56061;51.748;19.620;2022-12-29T07:35:56;11.40;;;4.30;;
69005;SDS011;56061;51.748;19.620;2022-12-29T07:38:23;12.00;;;4.20;;
69005;SDS011;56061;51.748;19.620;2022-12-29T07:40:49;10.70;;;4.50;;
69005;SDS011;56061;51.748;19.620;2022-12-29T07:43:17;12.00;;;5.00;;
69005;SDS011;56061;51.748;19.620;2022-12-29T07:45:43;13.00;;;5.00;;
69005;SDS011;56061;51.748;19.620;2022-12-29T07:48:10;11.20;;;4.60;;
69005;SDS011;56061;51.748;19.620;2022-12-29T07:50:37;11.50;;;5.10;;
69005;SDS011;56061;51.748;19.620;2022-12-29T07:53:04;10.80;;;4.90;;
69005;SDS011;56061;51.748;19.620;2022-12-29T07:55:30;9.40;;;4.00;;
69005;SDS011;56061;51.748;19.620;2022-12-29T07:57:57;11.30;;;5.30;;
69005;SDS011;56061;51.748;19.620;2022-12-29T08:00:24;7.30;;;3.70;;
69005;SDS011;56061;51.748;19.620;2022-12-29T08:02:51;12.00;;;5.00;;
69005;SDS011;56061;51.748;19.620;2022-12-29T08:05:18;21.80;;;7.60;;
69005;SDS011;56061;51.748;19.620;2022-12-29T08:07:46;55.70;;;20.00;;
69005;SDS011;56061;51.748;19.620;2022-12-29T08:10:14;70.20;;;23.40;;
69005;SDS011;56061;51.748;19.620;2022-12-29T08:12:41;55.80;;;18.60;;
69005;SDS011;56061;51.748;19.620;2022-12-29T08:15:10;96.80;;;28.70;;
69005;SDS011;56061;51.748;19.620;2022-12-29T08:17:38;57.80;;;17.60;;
69005;SDS011;56061;51.748;19.620;2022-12-29T08:20:05;43.30;;;15.00;;
69005;SDS011;56061;51.748;19.620;2022-12-29T08:22:32;39.20;;;13.60;;
69005;SDS011;56061;51.748;19.620;2022-12-29T08:24:58;51.30;;;16.40;;
69005;SDS011;56061;51.748;19.620;2022-12-29T08:27:26;40.00;;;14.50;;
69005;SDS011;56061;51.748;19.620;2022-12-29T08:29:52;53.30;;;18.00;;
69005;SDS011;56061;51.748;19.620;2022-12-29T08:32:19;29.50;;;10.60;;
69005;SDS011;56061;51.748;19.620;2022-12-29T08:34:45;30.40;;;11.30;;
69005;SDS011;56061;51.748;19.620;2022-12-29T08:37:12;19.60;;;8.30;;
69005;SDS011;56061;51.748;19.620;2022-12-29T08:39:38;22.20;;;10.80;;
69005;SDS011;56061;51.748;19.620;2022-12-29T08:42:05;29.70;;;12.00;;
69005;SDS011;56061;51.748;19.620;2022-12-29T08:44:32;24.80;;;8.90;;
69005;SDS011;56061;51.748;19.620;2022-12-29T08:46:59;31.40;;;11.80;;
69005;SDS011;56061;51.748;19.620;2022-12-29T08:49:25;32.20;;;11.50;;
69005;SDS011;56061;51.748;19.620;2022-12-29T08:51:52;29.90;;;11.20;;
69005;SDS011;56061;51.748;19.620;2022-12-29T08:54:18;36.20;;;13.60;;
69005;SDS011;56061;51.748;19.620;2022-12-29T08:56:45;39.70;;;16.50;;
69005;SDS011;56061;51.748;19.620;2022-12-29T08:59:11;38.50;;;15.30;;
69005;SDS011;56061;51.748;19.620;2022-12-29T09:01:38;25.20;;;11.70;;
69005;SDS011;56061;51.748;19.620;2022-12-29T09:04:07;20.40;;;8.40;;
69005;SDS011;56061;51.748;19.620;2022-12-29T09:06:44;27.60;;;12.20;;
69005;SDS011;56061;51.748;19.620;2022-12-29T09:09:11;18.30;;;8.10;;
69005;SDS011;56061;51.748;19.620;2022-12-29T09:11:38;26.30;;;10.50;;
69005;SDS011;56061;51.748;19.620;2022-12-29T09:14:05;19.90;;;8.70;;
69005;SDS011;56061;51.748;19.620;2022-12-29T09:16:32;16.50;;;8.60;;
69005;SDS011;56061;51.748;19.620;2022-12-29T09:18:59;15.50;;;7.10;;
69005;SDS011;56061;51.748;19.620;2022-12-29T09:21:26;17.50;;;8.40;;
69005;SDS011;56061;51.748;19.620;2022-12-29T09:23:52;15.00;;;6.30;;
69005;SDS011;56061;51.748;19.620;2022-12-29T09:26:19;13.70;;;5.90;;
69005;SDS011;56061;51.748;19.620;2022-12-29T09:28:45;12.30;;;5.80;;
69005;SDS011;56061;51.748;19.620;2022-12-29T09:31:16;11.10;;;5.10;;
69005;SDS011;56061;51.748;19.620;2022-12-29T09:33:43;12.60;;;6.10;;
69005;SDS011;56061;51.748;19.620;2022-12-29T09:36:09;12.40;;;4.90;;
69005;SDS011;56061;51.748;19.620;2022-12-29T09:38:36;11.40;;;4.90;;
69005;SDS011;56061;51.748;19.620;2022-12-29T09:41:26;14.50;;;7.10;;
69005;SDS011;56061;51.748;19.620;2022-12-29T09:44:16;13.40;;;7.40;;
69005;SDS011;56061;51.748;19.620;2022-12-29T09:46:51;14.20;;;6.80;;
69005;SDS011;56061;51.748;19.620;2022-12-29T09:49:37;13.60;;;5.60;;
69005;SDS011;56061;51.748;19.620;2022-12-29T09:52:21;14.60;;;7.00;;
69005;SDS011;56061;51.748;19.620;2022-12-29T09:55:13;23.90;;;9.20;;
69005;SDS011;56061;51.748;19.620;2022-12-29T09:57:56;27.10;;;11.70;;
69005;SDS011;56061;51.748;19.620;2022-12-29T10:00:39;24.30;;;9.80;;
69005;SDS011;56061;51.748;19.620;2022-12-29T10:03:22;19.30;;;8.50;;
69005;SDS011;56061;51.748;19.620;2022-12-29T10:09:15;26.10;;;9.80;;
69005;SDS011;56061;51.748;19.620;2022-12-29T10:14:58;17.00;;;7.10;;
69005;SDS011;56061;51.748;19.620;2022-12-29T10:17:48;18.00;;;7.70;;
69005;SDS011;56061;51.748;19.620;2022-12-29T10:20:30;19.10;;;7.90;;
69005;SDS011;56061;51.748;19.620;2022-12-29T10:25:55;19.60;;;7.60;;
69005;SDS011;56061;51.748;19.620;2022-12-29T10:28:32;16.80;;;6.90;;
69005;SDS011;56061;51.748;19.620;2022-12-29T10:31:07;15.80;;;7.00;;
69005;SDS011;56061;51.748;19.620;2022-12-29T10:33:41;13.80;;;6.60;;
69005;SDS011;56061;51.748;19.620;2022-12-29T10:36:13;15.30;;;6.90;;
69005;SDS011;56061;51.748;19.620;2022-12-29T10:39:23;14.30;;;6.10;;
69005;SDS011;56061;51.748;19.620;2022-12-29T10:42:25;15.20;;;6.30;;
69005;SDS011;56061;51.748;19.620;2022-12-29T10:45:00;14.20;;;5.60;;
69005;SDS011;56061;51.748;19.620;2022-12-29T10:47:30;10.70;;;5.30;;
69005;SDS011;56061;51.748;19.620;2022-12-29T10:50:01;13.70;;;6.00;;
69005;SDS011;56061;51.748;19.620;2022-12-29T10:52:30;13.00;;;5.90;;
69005;SDS011;56061;51.748;19.620;2022-12-29T10:55:02;15.40;;;6.80;;
69005;SDS011;56061;51.748;19.620;2022-12-29T10:57:41;17.80;;;6.80;;
69005;SDS011;56061;51.748;19.620;2022-12-29T11:00:15;26.90;;;9.90;;
69005;SDS011;56061;51.748;19.620;2022-12-29T11:05:58;23.60;;;9.10;;
69005;SDS011;56061;51.748;19.620;2022-12-29T11:08:35;34.30;;;11.60;;
69005;SDS011;56061;51.748;19.620;2022-12-29T11:11:09;35.50;;;12.40;;
69005;SDS011;56061;51.748;19.620;2022-12-29T11:13:51;18.40;;;8.20;;
69005;SDS011;56061;51.748;19.620;2022-12-29T11:16:31;12.50;;;6.40;;
69005;SDS011;56061;51.748;19.620;2022-12-29T11:19:00;13.40;;;5.70;;
69005;SDS011;56061;51.748;19.620;2022-12-29T11:21:35;13.50;;;6.70;;
69005;SDS011;56061;51.748;19.620;2022-12-29T11:24:28;12.40;;;6.20;;
69005;SDS011;56061;51.748;19.620;2022-12-29T11:27:13;10.10;;;4.40;;
69005;SDS011;56061;51.748;19.620;2022-12-29T11:29:43;13.70;;;5.60;;
69005;SDS011;56061;51.748;19.620;2022-12-29T11:32:25;10.70;;;4.80;;
69005;SDS011;56061;51.748;19.620;2022-12-29T11:34:56;11.50;;;4.60;;
69005;SDS011;56061;51.748;19.620;2022-12-29T11:37:29;12.70;;;5.00;;
69005;SDS011;56061;51.748;19.620;2022-12-29T11:40:17;11.50;;;5.30;;
69005;SDS011;56061;51.748;19.620;2022-12-29T11:42:49;9.30;;;4.50;;
69005;SDS011;56061;51.748;19.620;2022-12-29T11:45:26;10.70;;;4.90;;
69005;SDS011;56061;51.748;19.620;2022-12-29T11:47:59;10.40;;;4.70;;
69005;SDS011;56061;51.748;19.620;2022-12-29T11:51:05;13.00;;;5.30;;
69005;SDS011;56061;51.748;19.620;2022-12-29T11:53:39;14.60;;;6.40;;
69005;SDS011;56061;51.748;19.620;2022-12-29T11:56:14;14.40;;;6.10;;
69005;SDS011;56061;51.748;19.620;2022-12-29T11:58:43;13.70;;;6.30;;
69005;SDS011;56061;51.748;19.620;2022-12-29T12:01:17;10.90;;;4.90;;
69005;SDS011;56061;51.748;19.620;2022-12-29T12:04:03;11.20;;;4.60;;
69005;SDS011;56061;51.748;19.620;2022-12-29T12:06:43;11.40;;;4.40;;
69005;SDS011;56061;51.748;19.620;2022-12-29T12:09:26;11.80;;;5.60;;
69005;SDS011;56061;51.748;19.620;2022-12-29T12:11:59;12.70;;;5.70;;
69005;SDS011;56061;51.748;19.620;2022-12-29T12:14:55;15.90;;;6.20;;
69005;SDS011;56061;51.748;19.620;2022-12-29T12:17:53;13.60;;;5.60;;
69005;SDS011;56061;51.748;19.620;2022-12-29T12:23:36;10.80;;;4.40;;
69005;SDS011;56061;51.748;19.620;2022-12-29T12:26:12;13.80;;;6.10;;
69005;SDS011;56061;51.748;19.620;2022-12-29T12:28:54;14.20;;;5.60;;
69005;SDS011;56061;51.748;19.620;2022-12-29T12:31:46;11.60;;;5.60;;
69005;SDS011;56061;51.748;19.620;2022-12-29T12:34:29;13.80;;;6.20;;
69005;SDS011;56061;51.748;19.620;2022-12-29T12:40:22;53.20;;;20.20;;
69005;SDS011;56061;51.748;19.620;2022-12-29T12:43:19;28.90;;;11.80;;
69005;SDS011;56061;51.748;19.620;2022-12-29T12:49:04;16.80;;;8.30;;
69005;SDS011;56061;51.748;19.620;2022-12-29T12:55:05;15.60;;;9.30;;
69005;SDS011;56061;51.748;19.620;2022-12-29T12:58:12;14.80;;;7.10;;
69005;SDS011;56061;51.748;19.620;2022-12-29T13:01:18;12.60;;;5.40;;
69005;SDS011;56061;51.748;19.620;2022-12-29T13:04:09;13.00;;;6.60;;
69005;SDS011;56061;51.748;19.620;2022-12-29T13:07:22;14.90;;;6.10;;
69005;SDS011;56061;51.748;19.620;2022-12-29T13:10:30;22.30;;;10.10;;
69005;SDS011;56061;51.748;19.620;2022-12-29T13:13:33;14.20;;;7.00;;
69005;SDS011;56061;51.748;19.620;2022-12-29T13:22:44;16.00;;;8.80;;
69005;SDS011;56061;51.748;19.620;2022-12-29T13:25:38;13.90;;;6.50;;
69005;SDS011;56061;51.748;19.620;2022-12-29T13:28:38;18.80;;;10.60;;
69005;SDS011;56061;51.748;19.620;2022-12-29T13:31:38;47.20;;;17.90;;
69005;SDS011;56061;51.748;19.620;2022-12-29T13:37:31;43.80;;;15.50;;
69005;SDS011;56061;51.748;19.620;2022-12-29T13:40:10;25.50;;;11.10;;
69005;SDS011;56061;51.748;19.620;2022-12-29T13:42:41;29.20;;;12.10;;
69005;SDS011;56061;51.748;19.620;2022-12-29T13:45:30;25.30;;;11.50;;
69005;SDS011;56061;51.748;19.620;2022-12-29T13:50:52;13.40;;;6.30;;
69005;SDS011;56061;51.748;19.620;2022-12-29T13:56:19;11.60;;;5.10;;
69005;SDS011;56061;51.748;19.620;2022-12-29T14:01:59;14.10;;;5.20;;
69005;SDS011;56061;51.748;19.620;2022-12-29T14:04:31;11.30;;;5.20;;
69005;SDS011;56061;51.748;19.620;2022-12-29T14:07:04;12.60;;;5.00;;
69005;SDS011;56061;51.748;19.620;2022-12-29T14:09:46;10.80;;;4.70;;
69005;SDS011;56061;51.748;19.620;2022-12-29T14:17:39;11.20;;;4.80;;
69005;SDS011;56061;51.748;19.620;2022-12-29T14:20:18;18.00;;;7.30;;
69005;SDS011;56061;51.748;19.620;2022-12-29T14:25:54;34.60;;;10.80;;
69005;SDS011;56061;51.748;19.620;2022-12-29T14:28:35;47.70;;;12.90;;
69005;SDS011;56061;51.748;19.620;2022-12-29T14:36:39;31.30;;;11.60;;
69005;SDS011;56061;51.748;19.620;2022-12-29T14:39:34;22.80;;;8.40;;
69005;SDS011;56061;51.748;19.620;2022-12-29T14:44:49;16.00;;;7.30;;
69005;SDS011;56061;51.748;19.620;2022-12-29T14:47:22;15.50;;;7.30;;
69005;SDS011;56061;51.748;19.620;2022-12-29T14:52:55;17.60;;;10.10;;
69005;SDS011;56061;51.748;19.620;2022-12-29T14:55:36;19.80;;;10.60;;
69005;SDS011;56061;51.748;19.620;2022-12-29T14:58:28;17.30;;;9.00;;
69005;SDS011;56061;51.748;19.620;2022-12-29T15:01:24;11.20;;;6.20;;
69005;SDS011;56061;51.748;19.620;2022-12-29T15:04:03;12.80;;;6.60;;
69005;SDS011;56061;51.748;19.620;2022-12-29T15:06:39;15.80;;;9.90;;
69005;SDS011;56061;51.748;19.620;2022-12-29T15:09:41;24.10;;;12.90;;
69005;SDS011;56061;51.748;19.620;2022-12-29T15:12:38;18.70;;;10.20;;
69005;SDS011;56061;51.748;19.620;2022-12-29T15:15:22;16.80;;;6.90;;
69005;SDS011;56061;51.748;19.620;2022-12-29T15:17:52;19.10;;;10.00;;
69005;SDS011;56061;51.748;19.620;2022-12-29T15:20:29;21.30;;;9.00;;
69005;SDS011;56061;51.748;19.620;2022-12-29T15:23:00;15.00;;;6.30;;
69005;SDS011;56061;51.748;19.620;2022-12-29T15:25:30;15.20;;;7.60;;
69005;SDS011;56061;51.748;19.620;2022-12-29T15:28:01;15.80;;;8.20;;
69005;SDS011;56061;51.748;19.620;2022-12-29T15:30:31;11.90;;;5.70;;
69005;SDS011;56061;51.748;19.620;2022-12-29T15:32:57;11.90;;;5.60;;
69005;SDS011;56061;51.748;19.620;2022-12-29T15:35:35;14.30;;;6.20;;
69005;SDS011;56061;51.748;19.620;2022-12-29T15:38:21;13.60;;;6.20;;
69005;SDS011;56061;51.748;19.620;2022-12-29T15:41:04;13.80;;;6.60;;
69005;SDS011;56061;51.748;19.620;2022-12-29T15:46:43;12.80;;;5.20;;
69005;SDS011;56061;51.748;19.620;2022-12-29T15:49:13;17.60;;;6.20;;
69005;SDS011;56061;51.748;19.620;2022-12-29T15:51:41;12.10;;;5.50;;
69005;SDS011;56061;51.748;19.620;2022-12-29T15:54:21;13.00;;;6.40;;
69005;SDS011;56061;51.748;19.620;2022-12-29T15:56:49;14.40;;;7.80;;
69005;SDS011;56061;51.748;19.620;2022-12-29T15:59:28;19.00;;;10.50;;
69005;SDS011;56061;51.748;19.620;2022-12-29T16:01:58;13.10;;;6.50;;
69005;SDS011;56061;51.748;19.620;2022-12-29T16:04:32;13.70;;;6.30;;
69005;SDS011;56061;51.748;19.620;2022-12-29T16:07:30;11.80;;;5.30;;
69005;SDS011;56061;51.748;19.620;2022-12-29T16:16:13;14.80;;;6.30;;
69005;SDS011;56061;51.748;19.620;2022-12-29T16:18:44;12.10;;;6.00;;
69005;SDS011;56061;51.748;19.620;2022-12-29T16:21:25;14.60;;;7.80;;
69005;SDS011;56061;51.748;19.620;2022-12-29T16:23:57;14.00;;;6.50;;
69005;SDS011;56061;51.748;19.620;2022-12-29T16:26:28;15.50;;;8.10;;
69005;SDS011;56061;51.748;19.620;2022-12-29T16:28:59;15.40;;;6.60;;
69005;SDS011;56061;51.748;19.620;2022-12-29T16:31:37;11.10;;;5.60;;
69005;SDS011;56061;51.748;19.620;2022-12-29T16:34:28;14.50;;;6.40;;
69005;SDS011;56061;51.748;19.620;2022-12-29T16:36:58;14.00;;;7.00;;
69005;SDS011;56061;51.748;19.620;2022-12-29T16:39:39;20.70;;;8.10;;
69005;SDS011;56061;51.748;19.620;2022-12-29T16:50:34;24.90;;;10.40;;